sensor_id;sensor_type;location;lat;lon;timestamp;P1;durP1;ratioP1;P2;durP2;ratioP2
25231;SDS011;13176;51.140;6.290;2023-10-13T00:01:55;647.38;;;606.78;;
25231;SDS011;13176;51.140;6.290;2023-10-13T00:04:25;656.67;;;615.30;;
25231;SDS011;13176;51.140;6.290;2023-10-13T00:06:52;664.60;;;622.65;;
25231;SDS011;13176;51.140;6.290;2023-10-13T00:09:19;657.70;;;616.03;;
25231;SDS011;13176;51.140;6.290;2023-10-13T00:11:52;663.05;;;619.35;;
25231;SDS011;13176;51.140;6.290;2023-10-13T00:14:20;703.92;;;657.00;;
25231;SDS011;13176;51.140;6.290;2023-10-13T00:16:56;694.05;;;648.63;;
25231;SDS011;13176;51.140;6.290;2023-10-13T00:19:49;672.15;;;629.03;;
25231;SDS011;13176;51.140;6.290;2023-10-13T00:22:19;653.72;;;612.13;;
25231;SDS011;13176;51.140;6.290;2023-10-13T00:24:46;686.78;;;642.53;;
25231;SDS011;13176;51.140;6.290;2023-10-13T00:27:17;678.58;;;634.90;;
25231;SDS011;13176;51.140;6.290;2023-10-13T00:29:58;662.67;;;620.20;;
25231;SDS011;13176;51.140;6.290;2023-10-13T00:32:49;668.97;;;625.97;;
25231;SDS011;13176;51.140;6.290;2023-10-13T00:35:22;655.83;;;614.70;;
25231;SDS011;13176;51.140;6.290;2023-10-13T00:37:57;652.38;;;611.45;;
25231;SDS011;13176;51.140;6.290;2023-10-13T00:40:31;615.45;;;577.10;;
25231;SDS011;13176;51.140;6.290;2023-10-13T00:42:58;629.60;;;590.47;;
25231;SDS011;13176;51.140;6.290;2023-10-13T00:46:01;626.53;;;587.47;;
25231;SDS011;13176;51.140;6.290;2023-10-13T00:48:35;637.67;;;597.33;;
25231;SDS011;13176;51.140;6.290;2023-10-13T00:51:12;649.22;;;606.85;;
25231;SDS011;13176;51.140;6.290;2023-10-13T00:53:59;631.33;;;591.60;;
25231;SDS011;13176;51.140;6.290;2023-10-13T00:56:28;635.78;;;595.78;;
25231;SDS011;13176;51.140;6.290;2023-10-13T00:58:57;634.85;;;595.58;;
25231;SDS011;13176;51.140;6.290;2023-10-13T01:01:29;600.33;;;563.25;;
25231;SDS011;13176;51.140;6.290;2023-10-13T01:04:02;637.92;;;597.47;;
25231;SDS011;13176;51.140;6.290;2023-10-13T01:06:31;634.30;;;594.40;;
25231;SDS011;13176;51.140;6.290;2023-10-13T01:08:58;632.90;;;593.20;;
25231;SDS011;13176;51.140;6.290;2023-10-13T01:11:49;669.83;;;626.85;;
25231;SDS011;13176;51.140;6.290;2023-10-13T01:14:20;660.80;;;618.83;;
25231;SDS011;13176;51.140;6.290;2023-10-13T01:16:49;676.10;;;633.25;;
25231;SDS011;13176;51.140;6.290;2023-10-13T01:19:19;625.85;;;586.28;;
25231;SDS011;13176;51.140;6.290;2023-10-13T01:21:51;666.40;;;623.67;;
25231;SDS011;13176;51.140;6.290;2023-10-13T01:24:28;691.08;;;644.85;;
25231;SDS011;13176;51.140;6.290;2023-10-13T01:26:57;696.35;;;650.92;;
25231;SDS011;13176;51.140;6.290;2023-10-13T01:29:29;694.05;;;649.78;;
25231;SDS011;13176;51.140;6.290;2023-10-13T01:31:56;702.28;;;656.78;;
25231;SDS011;13176;51.140;6.290;2023-10-13T01:34:22;669.08;;;626.03;;
25231;SDS011;13176;51.140;6.290;2023-10-13T01:36:52;677.08;;;634.03;;
25231;SDS011;13176;51.140;6.290;2023-10-13T01:39:22;678.35;;;635.50;;
25231;SDS011;13176;51.140;6.290;2023-10-13T01:41:57;640.70;;;600.17;;
25231;SDS011;13176;51.140;6.290;2023-10-13T01:44:24;623.22;;;584.60;;
25231;SDS011;13176;51.140;6.290;2023-10-13T01:46:56;644.05;;;603.53;;
25231;SDS011;13176;51.140;6.290;2023-10-13T01:49:32;660.08;;;617.90;;
25231;SDS011;13176;51.140;6.290;2023-10-13T01:52:08;672.83;;;629.40;;
25231;SDS011;13176;51.140;6.290;2023-10-13T01:54:45;680.97;;;637.43;;
25231;SDS011;13176;51.140;6.290;2023-10-13T01:57:15;645.67;;;604.58;;
25231;SDS011;13176;51.140;6.290;2023-10-13T01:59:47;654.95;;;612.97;;
25231;SDS011;13176;51.140;6.290;2023-10-13T02:02:15;672.45;;;628.55;;
25231;SDS011;13176;51.140;6.290;2023-10-13T02:04:55;651.95;;;610.28;;
25231;SDS011;13176;51.140;6.290;2023-10-13T02:07:27;697.75;;;651.63;;
25231;SDS011;13176;51.140;6.290;2023-10-13T02:10:00;675.03;;;630.83;;
25231;SDS011;13176;51.140;6.290;2023-10-13T02:12:31;698.45;;;653.15;;
25231;SDS011;13176;51.140;6.290;2023-10-13T02:15:10;699.35;;;654.28;;
25231;SDS011;13176;51.140;6.290;2023-10-13T02:17:48;674.10;;;630.92;;
25231;SDS011;13176;51.140;6.290;2023-10-13T02:20:23;664.08;;;620.38;;
25231;SDS011;13176;51.140;6.290;2023-10-13T02:22:56;707.60;;;662.13;;
25231;SDS011;13176;51.140;6.290;2023-10-13T02:25:23;661.45;;;619.17;;
25231;SDS011;13176;51.140;6.290;2023-10-13T02:28:08;696.83;;;651.30;;
25231;SDS011;13176;51.140;6.290;2023-10-13T02:30:47;725.25;;;678.47;;
25231;SDS011;13176;51.140;6.290;2023-10-13T02:33:17;748.20;;;698.15;;
25231;SDS011;13176;51.140;6.290;2023-10-13T02:35:59;743.38;;;694.03;;
25231;SDS011;13176;51.140;6.290;2023-10-13T02:38:29;735.15;;;686.88;;
25231;SDS011;13176;51.140;6.290;2023-10-13T02:41:18;707.78;;;662.42;;
25231;SDS011;13176;51.140;6.290;2023-10-13T02:43:52;696.15;;;651.42;;
25231;SDS011;13176;51.140;6.290;2023-10-13T02:46:22;715.30;;;668.78;;
25231;SDS011;13176;51.140;6.290;2023-10-13T02:48:49;704.88;;;658.42;;
25231;SDS011;13176;51.140;6.290;2023-10-13T02:51:19;692.55;;;648.40;;
25231;SDS011;13176;51.140;6.290;2023-10-13T02:53:57;683.33;;;638.75;;
25231;SDS011;13176;51.140;6.290;2023-10-13T02:56:29;677.97;;;634.30;;
25231;SDS011;13176;51.140;6.290;2023-10-13T02:58:55;663.15;;;620.28;;
25231;SDS011;13176;51.140;6.290;2023-10-13T03:01:35;676.55;;;632.60;;
25231;SDS011;13176;51.140;6.290;2023-10-13T03:04:03;678.13;;;634.40;;
25231;SDS011;13176;51.140;6.290;2023-10-13T03:06:32;683.40;;;638.78;;
25231;SDS011;13176;51.140;6.290;2023-10-13T03:09:03;656.05;;;614.35;;
25231;SDS011;13176;51.140;6.290;2023-10-13T03:11:59;671.53;;;628.75;;
25231;SDS011;13176;51.140;6.290;2023-10-13T03:14:26;676.53;;;633.40;;
25231;SDS011;13176;51.140;6.290;2023-10-13T03:16:58;666.90;;;623.97;;
25231;SDS011;13176;51.140;6.290;2023-10-13T03:19:32;663.15;;;620.50;;
25231;SDS011;13176;51.140;6.290;2023-10-13T03:22:03;693.20;;;648.42;;
25231;SDS011;13176;51.140;6.290;2023-10-13T03:24:43;689.83;;;644.90;;
25231;SDS011;13176;51.140;6.290;2023-10-13T03:27:14;683.42;;;639.83;;
25231;SDS011;13176;51.140;6.290;2023-10-13T03:29:43;681.05;;;637.63;;
25231;SDS011;13176;51.140;6.290;2023-10-13T03:32:11;687.42;;;643.45;;
25231;SDS011;13176;51.140;6.290;2023-10-13T03:34:41;674.70;;;630.53;;
25231;SDS011;13176;51.140;6.290;2023-10-13T03:37:20;685.80;;;640.00;;
25231;SDS011;13176;51.140;6.290;2023-10-13T03:42:53;711.78;;;664.03;;
25231;SDS011;13176;51.140;6.290;2023-10-13T03:45:26;712.72;;;663.38;;
25231;SDS011;13176;51.140;6.290;2023-10-13T03:47:53;717.70;;;668.20;;
25231;SDS011;13176;51.140;6.290;2023-10-13T03:50:20;743.03;;;690.95;;
25231;SDS011;13176;51.140;6.290;2023-10-13T03:52:57;738.40;;;687.90;;
25231;SDS011;13176;51.140;6.290;2023-10-13T03:55:24;712.42;;;664.35;;
25231;SDS011;13176;51.140;6.290;2023-10-13T03:57:53;720.17;;;672.10;;
25231;SDS011;13176;51.140;6.290;2023-10-13T04:00:20;737.20;;;688.05;;
25231;SDS011;13176;51.140;6.290;2023-10-13T04:02:50;712.90;;;665.80;;
25231;SDS011;13176;51.140;6.290;2023-10-13T04:05:31;713.05;;;666.63;;
25231;SDS011;13176;51.140;6.290;2023-10-13T04:08:07;649.10;;;607.30;;
25231;SDS011;13176;51.140;6.290;2023-10-13T04:10:55;653.47;;;610.35;;
25231;SDS011;13176;51.140;6.290;2023-10-13T04:13:42;678.60;;;633.97;;
25231;SDS011;13176;51.140;6.290;2023-10-13T04:16:27;677.92;;;632.90;;
25231;SDS011;13176;51.140;6.290;2023-10-13T04:18:54;697.13;;;649.97;;
25231;SDS011;13176;51.140;6.290;2023-10-13T04:21:24;673.25;;;628.60;;
25231;SDS011;13176;51.140;6.290;2023-10-13T04:24:10;680.95;;;633.53;;
25231;SDS011;13176;51.140;6.290;2023-10-13T04:26:44;645.20;;;601.92;;
25231;SDS011;13176;51.140;6.290;2023-10-13T04:29:29;623.13;;;580.40;;
25231;SDS011;13176;51.140;6.290;2023-10-13T04:32:14;624.47;;;583.80;;
25231;SDS011;13176;51.140;6.290;2023-10-13T04:34:46;633.08;;;589.88;;
25231;SDS011;13176;51.140;6.290;2023-10-13T04:37:12;580.17;;;541.83;;
25231;SDS011;13176;51.140;6.290;2023-10-13T04:40:14;649.13;;;603.90;;
25231;SDS011;13176;51.140;6.290;2023-10-13T04:42:46;690.63;;;641.10;;
25231;SDS011;13176;51.140;6.290;2023-10-13T04:45:16;596.97;;;555.78;;
25231;SDS011;13176;51.140;6.290;2023-10-13T04:48:09;666.33;;;620.13;;
25231;SDS011;13176;51.140;6.290;2023-10-13T04:50:58;643.40;;;598.17;;
25231;SDS011;13176;51.140;6.290;2023-10-13T04:53:46;651.47;;;603.35;;
25231;SDS011;13176;51.140;6.290;2023-10-13T04:56:38;644.60;;;598.13;;
25231;SDS011;13176;51.140;6.290;2023-10-13T04:59:08;611.60;;;568.05;;
25231;SDS011;13176;51.140;6.290;2023-10-13T05:01:52;628.60;;;584.20;;
25231;SDS011;13176;51.140;6.290;2023-10-13T05:04:38;585.55;;;543.03;;
25231;SDS011;13176;51.140;6.290;2023-10-13T05:07:30;657.90;;;609.10;;
25231;SDS011;13176;51.140;6.290;2023-10-13T05:10:14;584.38;;;542.80;;
25231;SDS011;13176;51.140;6.290;2023-10-13T05:12:59;559.90;;;519.55;;
25231;SDS011;13176;51.140;6.290;2023-10-13T05:15:46;585.05;;;541.63;;
25231;SDS011;13176;51.140;6.290;2023-10-13T05:18:32;534.95;;;495.83;;
25231;SDS011;13176;51.140;6.290;2023-10-13T05:21:18;526.90;;;487.38;;
25231;SDS011;13176;51.140;6.290;2023-10-13T05:24:04;530.63;;;492.73;;
25231;SDS011;13176;51.140;6.290;2023-10-13T05:26:49;467.88;;;432.73;;
25231;SDS011;13176;51.140;6.290;2023-10-13T05:29:38;501.25;;;464.65;;
25231;SDS011;13176;51.140;6.290;2023-10-13T05:32:27;437.00;;;404.98;;
25231;SDS011;13176;51.140;6.290;2023-10-13T05:35:12;426.08;;;394.73;;
25231;SDS011;13176;51.140;6.290;2023-10-13T05:37:58;404.67;;;375.42;;
25231;SDS011;13176;51.140;6.290;2023-10-13T05:40:53;429.38;;;398.33;;
25231;SDS011;13176;51.140;6.290;2023-10-13T05:43:45;402.75;;;374.00;;
25231;SDS011;13176;51.140;6.290;2023-10-13T05:46:30;391.02;;;362.33;;
25231;SDS011;13176;51.140;6.290;2023-10-13T05:49:04;385.48;;;355.75;;
25231;SDS011;13176;51.140;6.290;2023-10-13T05:51:44;445.05;;;413.02;;
25231;SDS011;13176;51.140;6.290;2023-10-13T05:54:24;418.83;;;388.88;;
25231;SDS011;13176;51.140;6.290;2023-10-13T05:56:50;422.85;;;393.35;;
25231;SDS011;13176;51.140;6.290;2023-10-13T05:59:37;391.42;;;365.15;;
25231;SDS011;13176;51.140;6.290;2023-10-13T06:02:23;520.20;;;482.73;;
25231;SDS011;13176;51.140;6.290;2023-10-13T06:05:12;446.17;;;414.10;;
25231;SDS011;13176;51.140;6.290;2023-10-13T06:08:17;537.47;;;498.50;;
25231;SDS011;13176;51.140;6.290;2023-10-13T06:11:03;522.33;;;484.08;;
25231;SDS011;13176;51.140;6.290;2023-10-13T06:13:48;472.25;;;437.20;;
25231;SDS011;13176;51.140;6.290;2023-10-13T06:16:33;452.05;;;419.00;;
25231;SDS011;13176;51.140;6.290;2023-10-13T06:19:18;409.83;;;381.48;;
25231;SDS011;13176;51.140;6.290;2023-10-13T06:22:07;408.50;;;379.58;;
25231;SDS011;13176;51.140;6.290;2023-10-13T06:24:52;386.73;;;360.10;;
25231;SDS011;13176;51.140;6.290;2023-10-13T06:27:37;437.02;;;406.00;;
25231;SDS011;13176;51.140;6.290;2023-10-13T06:30:22;435.13;;;404.60;;
25231;SDS011;13176;51.140;6.290;2023-10-13T06:32:48;513.20;;;477.23;;
25231;SDS011;13176;51.140;6.290;2023-10-13T06:35:16;453.60;;;419.50;;
25231;SDS011;13176;51.140;6.290;2023-10-13T06:37:49;504.92;;;468.30;;
25231;SDS011;13176;51.140;6.290;2023-10-13T06:40:17;500.55;;;464.40;;
25231;SDS011;13176;51.140;6.290;2023-10-13T06:42:53;532.53;;;493.58;;
25231;SDS011;13176;51.140;6.290;2023-10-13T06:45:22;491.10;;;456.42;;
25231;SDS011;13176;51.140;6.290;2023-10-13T06:47:48;553.42;;;513.38;;
25231;SDS011;13176;51.140;6.290;2023-10-13T06:50:19;598.47;;;555.63;;
25231;SDS011;13176;51.140;6.290;2023-10-13T06:52:50;505.75;;;468.95;;
25231;SDS011;13176;51.140;6.290;2023-10-13T06:55:21;590.92;;;550.47;;
25231;SDS011;13176;51.140;6.290;2023-10-13T06:57:54;584.47;;;542.53;;
25231;SDS011;13176;51.140;6.290;2023-10-13T07:00:26;507.67;;;472.33;;
25231;SDS011;13176;51.140;6.290;2023-10-13T07:02:59;534.08;;;497.98;;
25231;SDS011;13176;51.140;6.290;2023-10-13T07:05:33;569.75;;;529.50;;
25231;SDS011;13176;51.140;6.290;2023-10-13T07:08:10;560.28;;;522.80;;
25231;SDS011;13176;51.140;6.290;2023-10-13T07:10:50;600.35;;;558.35;;
25231;SDS011;13176;51.140;6.290;2023-10-13T07:13:34;506.83;;;472.77;;
25231;SDS011;13176;51.140;6.290;2023-10-13T07:16:13;555.40;;;516.83;;
25231;SDS011;13176;51.140;6.290;2023-10-13T07:18:55;548.67;;;510.52;;
25231;SDS011;13176;51.140;6.290;2023-10-13T07:21:21;601.38;;;561.47;;
25231;SDS011;13176;51.140;6.290;2023-10-13T07:23:58;612.17;;;571.30;;
25231;SDS011;13176;51.140;6.290;2023-10-13T07:26:34;584.05;;;543.90;;
25231;SDS011;13176;51.140;6.290;2023-10-13T07:31:35;605.08;;;563.78;;
25231;SDS011;13176;51.140;6.290;2023-10-13T07:34:04;575.25;;;536.30;;
25231;SDS011;13176;51.140;6.290;2023-10-13T07:36:39;546.13;;;510.25;;
25231;SDS011;13176;51.140;6.290;2023-10-13T07:39:06;545.65;;;508.88;;
25231;SDS011;13176;51.140;6.290;2023-10-13T07:41:49;616.45;;;575.63;;
25231;SDS011;13176;51.140;6.290;2023-10-13T07:44:32;558.83;;;521.67;;
25231;SDS011;13176;51.140;6.290;2023-10-13T07:47:00;543.60;;;507.92;;
25231;SDS011;13176;51.140;6.290;2023-10-13T07:49:32;571.15;;;533.58;;
25231;SDS011;13176;51.140;6.290;2023-10-13T07:52:10;612.30;;;571.15;;
25231;SDS011;13176;51.140;6.290;2023-10-13T07:54:54;526.55;;;491.30;;
25231;SDS011;13176;51.140;6.290;2023-10-13T07:57:39;510.77;;;477.00;;
25231;SDS011;13176;51.140;6.290;2023-10-13T08:00:25;565.17;;;528.33;;
25231;SDS011;13176;51.140;6.290;2023-10-13T08:02:56;593.10;;;553.85;;
25231;SDS011;13176;51.140;6.290;2023-10-13T08:05:52;635.33;;;592.97;;
25231;SDS011;13176;51.140;6.290;2023-10-13T08:08:24;635.78;;;593.83;;
25231;SDS011;13176;51.140;6.290;2023-10-13T08:10:52;652.60;;;609.13;;
25231;SDS011;13176;51.140;6.290;2023-10-13T08:13:27;723.55;;;673.40;;
25231;SDS011;13176;51.140;6.290;2023-10-13T08:15:56;722.28;;;673.05;;
25231;SDS011;13176;51.140;6.290;2023-10-13T08:18:32;705.47;;;657.42;;
25231;SDS011;13176;51.140;6.290;2023-10-13T08:21:02;624.88;;;585.28;;
25231;SDS011;13176;51.140;6.290;2023-10-13T08:23:30;593.78;;;557.60;;
25231;SDS011;13176;51.140;6.290;2023-10-13T08:26:29;688.33;;;642.63;;
25231;SDS011;13176;51.140;6.290;2023-10-13T08:28:56;578.85;;;543.88;;
25231;SDS011;13176;51.140;6.290;2023-10-13T08:31:24;527.20;;;495.48;;
25231;SDS011;13176;51.140;6.290;2023-10-13T08:33:53;490.42;;;460.35;;
25231;SDS011;13176;51.140;6.290;2023-10-13T08:36:33;474.88;;;446.95;;
25231;SDS011;13176;51.140;6.290;2023-10-13T08:39:04;443.08;;;416.98;;
25231;SDS011;13176;51.140;6.290;2023-10-13T08:41:50;520.42;;;489.27;;
25231;SDS011;13176;51.140;6.290;2023-10-13T08:44:40;482.17;;;453.73;;
25231;SDS011;13176;51.140;6.290;2023-10-13T08:47:18;475.20;;;446.92;;
25231;SDS011;13176;51.140;6.290;2023-10-13T08:49:51;467.65;;;440.35;;
25231;SDS011;13176;51.140;6.290;2023-10-13T08:52:19;523.90;;;492.20;;
25231;SDS011;13176;51.140;6.290;2023-10-13T08:55:12;562.35;;;529.20;;
25231;SDS011;13176;51.140;6.290;2023-10-13T08:58:00;524.58;;;493.98;;
25231;SDS011;13176;51.140;6.290;2023-10-13T09:00:42;524.17;;;493.63;;
25231;SDS011;13176;51.140;6.290;2023-10-13T09:03:23;536.72;;;505.58;;
25231;SDS011;13176;51.140;6.290;2023-10-13T09:05:56;512.13;;;482.35;;
25231;SDS011;13176;51.140;6.290;2023-10-13T09:08:32;486.30;;;458.15;;
25231;SDS011;13176;51.140;6.290;2023-10-13T09:11:03;457.45;;;431.83;;
25231;SDS011;13176;51.140;6.290;2023-10-13T09:13:38;455.77;;;430.17;;
25231;SDS011;13176;51.140;6.290;2023-10-13T09:16:14;517.33;;;487.20;;
25231;SDS011;13176;51.140;6.290;2023-10-13T09:19:03;423.85;;;400.20;;
25231;SDS011;13176;51.140;6.290;2023-10-13T09:21:38;400.05;;;378.17;;
25231;SDS011;13176;51.140;6.290;2023-10-13T09:24:08;413.10;;;390.17;;
25231;SDS011;13176;51.140;6.290;2023-10-13T09:26:48;357.17;;;337.85;;
25231;SDS011;13176;51.140;6.290;2023-10-13T09:29:22;393.00;;;371.67;;
25231;SDS011;13176;51.140;6.290;2023-10-13T09:32:02;355.98;;;336.20;;
25231;SDS011;13176;51.140;6.290;2023-10-13T09:34:31;391.45;;;369.73;;
25231;SDS011;13176;51.140;6.290;2023-10-13T09:37:07;351.08;;;332.05;;
25231;SDS011;13176;51.140;6.290;2023-10-13T09:39:37;393.50;;;371.65;;
25231;SDS011;13176;51.140;6.290;2023-10-13T09:42:11;319.98;;;302.38;;
25231;SDS011;13176;51.140;6.290;2023-10-13T09:44:42;374.90;;;354.23;;
25231;SDS011;13176;51.140;6.290;2023-10-13T09:47:16;311.38;;;294.42;;
25231;SDS011;13176;51.140;6.290;2023-10-13T09:49:51;309.58;;;292.35;;
25231;SDS011;13176;51.140;6.290;2023-10-13T09:52:29;251.48;;;237.38;;
25231;SDS011;13176;51.140;6.290;2023-10-13T09:55:04;343.30;;;324.10;;
25231;SDS011;13176;51.140;6.290;2023-10-13T09:57:48;218.25;;;206.20;;
25231;SDS011;13176;51.140;6.290;2023-10-13T10:00:26;268.00;;;252.55;;
25231;SDS011;13176;51.140;6.290;2023-10-13T10:03:00;332.95;;;314.35;;
25231;SDS011;13176;51.140;6.290;2023-10-13T10:05:58;173.55;;;163.77;;
25231;SDS011;13176;51.140;6.290;2023-10-13T10:08:33;308.52;;;291.60;;
25231;SDS011;13176;51.140;6.290;2023-10-13T10:11:04;157.18;;;147.77;;
25231;SDS011;13176;51.140;6.290;2023-10-13T10:13:53;207.60;;;195.77;;
25231;SDS011;13176;51.140;6.290;2023-10-13T10:16:37;147.63;;;139.03;;
25231;SDS011;13176;51.140;6.290;2023-10-13T10:19:12;87.93;;;82.65;;
25231;SDS011;13176;51.140;6.290;2023-10-13T10:21:39;257.98;;;243.60;;
25231;SDS011;13176;51.140;6.290;2023-10-13T10:24:14;291.30;;;275.30;;
25231;SDS011;13176;51.140;6.290;2023-10-13T10:26:53;228.32;;;215.60;;
25231;SDS011;13176;51.140;6.290;2023-10-13T10:29:20;314.85;;;297.42;;
25231;SDS011;13176;51.140;6.290;2023-10-13T10:31:47;223.07;;;210.10;;
25231;SDS011;13176;51.140;6.290;2023-10-13T10:34:14;334.30;;;315.63;;
25231;SDS011;13176;51.140;6.290;2023-10-13T10:36:46;109.28;;;102.43;;
25231;SDS011;13176;51.140;6.290;2023-10-13T10:39:14;156.18;;;146.50;;
25231;SDS011;13176;51.140;6.290;2023-10-13T10:41:41;162.18;;;152.20;;
25231;SDS011;13176;51.140;6.290;2023-10-13T10:44:14;245.35;;;231.25;;
25231;SDS011;13176;51.140;6.290;2023-10-13T10:46:43;317.25;;;299.33;;
25231;SDS011;13176;51.140;6.290;2023-10-13T10:49:26;66.32;;;61.35;;
25231;SDS011;13176;51.140;6.290;2023-10-13T10:51:57;195.85;;;184.15;;
25231;SDS011;13176;51.140;6.290;2023-10-13T10:54:30;125.70;;;117.15;;
25231;SDS011;13176;51.140;6.290;2023-10-13T10:56:58;175.55;;;165.10;;
25231;SDS011;13176;51.140;6.290;2023-10-13T10:59:37;81.78;;;76.28;;
25231;SDS011;13176;51.140;6.290;2023-10-13T11:02:06;64.68;;;59.88;;
25231;SDS011;13176;51.140;6.290;2023-10-13T11:04:35;62.13;;;58.15;;
25231;SDS011;13176;51.140;6.290;2023-10-13T11:07:07;86.75;;;81.32;;
25231;SDS011;13176;51.140;6.290;2023-10-13T11:09:35;70.20;;;65.60;;
25231;SDS011;13176;51.140;6.290;2023-10-13T11:12:12;69.53;;;64.97;;
25231;SDS011;13176;51.140;6.290;2023-10-13T11:15:00;54.78;;;51.22;;
25231;SDS011;13176;51.140;6.290;2023-10-13T11:17:28;66.97;;;62.42;;
25231;SDS011;13176;51.140;6.290;2023-10-13T11:20:18;64.90;;;60.25;;
25231;SDS011;13176;51.140;6.290;2023-10-13T11:22:52;77.93;;;72.47;;
25231;SDS011;13176;51.140;6.290;2023-10-13T11:25:20;103.68;;;96.40;;
25231;SDS011;13176;51.140;6.290;2023-10-13T11:27:57;45.08;;;39.65;;
25231;SDS011;13176;51.140;6.290;2023-10-13T11:30:32;56.90;;;52.58;;
25231;SDS011;13176;51.140;6.290;2023-10-13T11:33:04;49.85;;;45.83;;
25231;SDS011;13176;51.140;6.290;2023-10-13T11:35:39;53.20;;;48.67;;
25231;SDS011;13176;51.140;6.290;2023-10-13T11:38:23;39.45;;;36.00;;
25231;SDS011;13176;51.140;6.290;2023-10-13T11:43:32;56.25;;;51.88;;
25231;SDS011;13176;51.140;6.290;2023-10-13T11:46:01;64.68;;;59.95;;
25231;SDS011;13176;51.140;6.290;2023-10-13T11:48:34;41.80;;;38.15;;
25231;SDS011;13176;51.140;6.290;2023-10-13T11:51:02;34.58;;;31.40;;
25231;SDS011;13176;51.140;6.290;2023-10-13T11:53:36;40.45;;;37.17;;
25231;SDS011;13176;51.140;6.290;2023-10-13T11:56:04;41.17;;;37.50;;
25231;SDS011;13176;51.140;6.290;2023-10-13T11:58:37;40.17;;;36.97;;
25231;SDS011;13176;51.140;6.290;2023-10-13T12:01:05;42.42;;;39.38;;
25231;SDS011;13176;51.140;6.290;2023-10-13T12:03:47;41.88;;;38.33;;
25231;SDS011;13176;51.140;6.290;2023-10-13T12:06:34;52.45;;;48.42;;
25231;SDS011;13176;51.140;6.290;2023-10-13T12:11:57;39.70;;;36.33;;
25231;SDS011;13176;51.140;6.290;2023-10-13T12:14:26;40.33;;;37.60;;
25231;SDS011;13176;51.140;6.290;2023-10-13T12:16:58;38.78;;;35.88;;
25231;SDS011;13176;51.140;6.290;2023-10-13T12:19:31;38.28;;;35.15;;
25231;SDS011;13176;51.140;6.290;2023-10-13T12:22:01;39.03;;;35.83;;
25231;SDS011;13176;51.140;6.290;2023-10-13T12:24:34;43.55;;;40.47;;
25231;SDS011;13176;51.140;6.290;2023-10-13T12:27:03;40.50;;;37.13;;
25231;SDS011;13176;51.140;6.290;2023-10-13T12:29:50;38.50;;;35.47;;
25231;SDS011;13176;51.140;6.290;2023-10-13T12:32:22;41.50;;;37.72;;
25231;SDS011;13176;51.140;6.290;2023-10-13T12:34:51;40.00;;;36.75;;
25231;SDS011;13176;51.140;6.290;2023-10-13T12:37:30;37.00;;;33.92;;
25231;SDS011;13176;51.140;6.290;2023-10-13T12:40:14;37.22;;;34.05;;
25231;SDS011;13176;51.140;6.290;2023-10-13T12:43:03;39.53;;;36.28;;
25231;SDS011;13176;51.140;6.290;2023-10-13T12:45:50;40.95;;;37.38;;
25231;SDS011;13176;51.140;6.290;2023-10-13T12:48:37;37.75;;;34.08;;
25231;SDS011;13176;51.140;6.290;2023-10-13T12:51:24;39.22;;;35.63;;
25231;SDS011;13176;51.140;6.290;2023-10-13T12:54:00;39.95;;;36.10;;
25231;SDS011;13176;51.140;6.290;2023-10-13T12:57:02;33.95;;;30.88;;
25231;SDS011;13176;51.140;6.290;2023-10-13T12:59:29;36.10;;;32.55;;
25231;SDS011;13176;51.140;6.290;2023-10-13T13:01:55;31.92;;;29.20;;
25231;SDS011;13176;51.140;6.290;2023-10-13T13:04:22;37.63;;;34.15;;
25231;SDS011;13176;51.140;6.290;2023-10-13T13:06:51;34.08;;;31.02;;
25231;SDS011;13176;51.140;6.290;2023-10-13T13:09:20;33.22;;;30.55;;
25231;SDS011;13176;51.140;6.290;2023-10-13T13:11:53;31.48;;;28.45;;
25231;SDS011;13176;51.140;6.290;2023-10-13T13:14:26;36.03;;;32.57;;
25231;SDS011;13176;51.140;6.290;2023-10-13T13:16:56;33.38;;;30.65;;
25231;SDS011;13176;51.140;6.290;2023-10-13T13:19:35;33.45;;;30.83;;
25231;SDS011;13176;51.140;6.290;2023-10-13T13:22:06;31.83;;;29.27;;
25231;SDS011;13176;51.140;6.290;2023-10-13T13:24:38;33.63;;;29.88;;
25231;SDS011;13176;51.140;6.290;2023-10-13T13:27:12;40.15;;;36.30;;
25231;SDS011;13176;51.140;6.290;2023-10-13T13:29:41;35.90;;;32.90;;
25231;SDS011;13176;51.140;6.290;2023-10-13T13:32:08;34.53;;;31.27;;
25231;SDS011;13176;51.140;6.290;2023-10-13T13:34:45;33.75;;;30.65;;
25231;SDS011;13176;51.140;6.290;2023-10-13T13:37:21;30.92;;;28.52;;
25231;SDS011;13176;51.140;6.290;2023-10-13T13:39:48;37.38;;;33.28;;
25231;SDS011;13176;51.140;6.290;2023-10-13T13:42:14;32.13;;;29.38;;
25231;SDS011;13176;51.140;6.290;2023-10-13T13:44:44;33.72;;;30.95;;
25231;SDS011;13176;51.140;6.290;2023-10-13T13:47:13;32.80;;;29.98;;
25231;SDS011;13176;51.140;6.290;2023-10-13T13:49:40;34.58;;;31.08;;
25231;SDS011;13176;51.140;6.290;2023-10-13T13:52:12;34.97;;;31.95;;
25231;SDS011;13176;51.140;6.290;2023-10-13T13:54:44;32.80;;;29.92;;
25231;SDS011;13176;51.140;6.290;2023-10-13T13:57:10;33.33;;;30.50;;
25231;SDS011;13176;51.140;6.290;2023-10-13T13:59:39;31.67;;;29.30;;
25231;SDS011;13176;51.140;6.290;2023-10-13T14:02:10;32.00;;;28.88;;
25231;SDS011;13176;51.140;6.290;2023-10-13T14:04:46;32.78;;;30.10;;
25231;SDS011;13176;51.140;6.290;2023-10-13T14:07:19;34.80;;;31.80;;
25231;SDS011;13176;51.140;6.290;2023-10-13T14:09:46;33.65;;;30.63;;
25231;SDS011;13176;51.140;6.290;2023-10-13T14:12:20;35.22;;;31.98;;
25231;SDS011;13176;51.140;6.290;2023-10-13T14:14:56;37.03;;;34.08;;
25231;SDS011;13176;51.140;6.290;2023-10-13T14:17:23;35.40;;;32.58;;
25231;SDS011;13176;51.140;6.290;2023-10-13T14:19:59;34.05;;;31.33;;
25231;SDS011;13176;51.140;6.290;2023-10-13T14:22:25;33.05;;;30.52;;
25231;SDS011;13176;51.140;6.290;2023-10-13T14:24:52;36.00;;;32.65;;
25231;SDS011;13176;51.140;6.290;2023-10-13T14:27:22;35.47;;;32.80;;
25231;SDS011;13176;51.140;6.290;2023-10-13T14:29:50;31.38;;;29.15;;
25231;SDS011;13176;51.140;6.290;2023-10-13T14:32:19;34.35;;;31.13;;
25231;SDS011;13176;51.140;6.290;2023-10-13T14:34:50;32.42;;;29.92;;
25231;SDS011;13176;51.140;6.290;2023-10-13T14:37:23;35.17;;;32.47;;
25231;SDS011;13176;51.140;6.290;2023-10-13T14:40:02;31.88;;;29.17;;
25231;SDS011;13176;51.140;6.290;2023-10-13T14:42:31;32.97;;;30.02;;
25231;SDS011;13176;51.140;6.290;2023-10-13T14:45:02;31.38;;;29.02;;
25231;SDS011;13176;51.140;6.290;2023-10-13T14:47:38;34.97;;;31.75;;
25231;SDS011;13176;51.140;6.290;2023-10-13T14:50:08;32.95;;;30.58;;
25231;SDS011;13176;51.140;6.290;2023-10-13T14:52:48;33.50;;;31.00;;
25231;SDS011;13176;51.140;6.290;2023-10-13T14:55:15;32.08;;;29.52;;
25231;SDS011;13176;51.140;6.290;2023-10-13T14:57:48;32.15;;;29.63;;
25231;SDS011;13176;51.140;6.290;2023-10-13T15:00:17;33.03;;;30.70;;
25231;SDS011;13176;51.140;6.290;2023-10-13T15:02:53;34.47;;;31.92;;